Terminal Aerodrome Forecast
Issued by NWS

Home | Current Version | Previous Version | Text Only | Print | Product List | Glossary On
Versions: 1 2 3 4 5 6 7 8 9 10 11 12 13
000
FTPA31 PHFO 231126
TAFHKO
TAF
PHKO 231126Z 2312/2412 11007KT P6SM FEW035 SCT060
     FM232100 21010KT P6SM FEW035 SCT060
     FM240600 17007KT P6SM FEW035 SCT060=

USA.gov is the U.S. government's official web portal to all federal, state and local government web resources and services.